createdAt,value
2023-12-10T00:01:23.795Z,95413.97
2023-12-10T00:03:50.358Z,95391.81
2023-12-10T00:06:16.845Z,95406.75
2023-12-10T00:08:43.228Z,95409.13
2023-12-10T00:11:09.558Z,95417.91
2023-12-10T00:13:35.917Z,95422.19
2023-12-10T00:16:02.247Z,95442.66
2023-12-10T00:18:28.734Z,95447.72
2023-12-10T00:20:55.428Z,95462.16
2023-12-10T00:23:21.736Z,95462.84
2023-12-10T00:25:48.082Z,95475.09
2023-12-10T00:28:14.436Z,95473.25
2023-12-10T00:30:40.752Z,95463.13
2023-12-10T00:33:07.207Z,95459.91
2023-12-10T00:35:33.681Z,95460.72
2023-12-10T00:37:59.995Z,95460.78
2023-12-10T00:40:26.319Z,95458.13
2023-12-10T00:42:52.700Z,95462.38
2023-12-10T00:45:19.114Z,95470.38
2023-12-10T00:47:45.537Z,95481.34
2023-12-10T00:50:11.956Z,95474.91
2023-12-10T00:52:38.287Z,95471.31
2023-12-10T00:55:04.623Z,95475.84
2023-12-10T00:57:31.129Z,95479.88
2023-12-10T00:59:57.490Z,95473.75
2023-12-10T01:02:23.919Z,95481.97
2023-12-10T01:04:50.392Z,95468.41
2023-12-10T01:07:16.743Z,95471.38
2023-12-10T01:09:43.054Z,95470.84
2023-12-10T01:12:09.527Z,95473.75
2023-12-10T01:14:35.934Z,95482.47
2023-12-10T01:17:02.240Z,95471.09
2023-12-10T01:19:28.694Z,95484.44
2023-12-10T01:21:55.083Z,95482.63
2023-12-10T01:24:21.405Z,95486.03
2023-12-10T01:26:47.749Z,95491.38
2023-12-10T01:29:14.062Z,95492.91
2023-12-10T01:31:40.364Z,95494.31
2023-12-10T01:34:06.939Z,95496.69
2023-12-10T01:36:33.346Z,95491.84
2023-12-10T01:38:59.653Z,95497.19
2023-12-10T01:41:26.106Z,95494.53
2023-12-10T01:43:52.413Z,95499.09
2023-12-10T01:46:18.741Z,95509.69
2023-12-10T01:48:45.142Z,95515.81
2023-12-10T01:51:11.528Z,95512.91
2023-12-10T01:53:37.851Z,95508.59
2023-12-10T01:56:04.279Z,95517.34
2023-12-10T01:58:30.594Z,95520.78
2023-12-10T02:00:56.991Z,95519.78
2023-12-10T02:03:23.549Z,95523.69
2023-12-10T02:05:49.980Z,95516.84
2023-12-10T02:08:16.337Z,95512.88
2023-12-10T02:10:42.754Z,95518.03
2023-12-10T02:13:09.061Z,95516.38
2023-12-10T02:15:35.415Z,95526.53
2023-12-10T02:18:01.839Z,95524.56
2023-12-10T02:20:28.163Z,95522.19
2023-12-10T02:22:54.461Z,95517.94
2023-12-10T02:25:20.848Z,95527.31
2023-12-10T02:27:47.211Z,95520.59
2023-12-10T02:30:13.538Z,95523.53
2023-12-10T02:32:39.947Z,95511.22
2023-12-10T02:35:06.265Z,95519.81
2023-12-10T02:37:32.573Z,95527.56
2023-12-10T02:39:58.897Z,95521.41
2023-12-10T02:42:25.239Z,95520.16
2023-12-10T02:44:51.600Z,95518.34
2023-12-10T02:47:17.941Z,95522.16
2023-12-10T02:49:44.323Z,95530.03
2023-12-10T02:52:10.747Z,95529.03
2023-12-10T02:54:37.190Z,95529.97
2023-12-10T02:57:03.505Z,95528.16
2023-12-10T02:59:29.824Z,95509.75
2023-12-10T03:01:56.316Z,95510.38
2023-12-10T03:04:22.640Z,95513.53
2023-12-10T03:06:49.008Z,95516.03
2023-12-10T03:09:15.396Z,95509.66
2023-12-10T03:11:41.710Z,95519.03
2023-12-10T03:14:09.366Z,95525.47
2023-12-10T03:16:36.928Z,95533.16
2023-12-10T03:19:03.371Z,95538.25
2023-12-10T03:21:29.764Z,95534.75
2023-12-10T03:23:56.234Z,95550.16
2023-12-10T03:26:22.545Z,95552.06
2023-12-10T03:28:48.946Z,95545.38
2023-12-10T03:31:15.321Z,95558.19
2023-12-10T03:33:41.766Z,95556.03
2023-12-10T03:36:08.205Z,95565.38
2023-12-10T03:38:34.575Z,95553.25
2023-12-10T03:41:00.891Z,95538.19
2023-12-10T03:43:27.200Z,95528.16
2023-12-10T03:45:53.632Z,95518.72
2023-12-10T03:48:20.120Z,95522.13
2023-12-10T03:50:46.505Z,95518.16
2023-12-10T03:53:12.922Z,95523.34
2023-12-10T03:55:39.241Z,95526.31
2023-12-10T03:58:05.565Z,95542.13
2023-12-10T04:00:32.008Z,95550.34
2023-12-10T04:02:58.386Z,95542.84
2023-12-10T04:05:24.770Z,95547.94
2023-12-10T04:07:51.191Z,95543.94
2023-12-10T04:10:17.492Z,95557.81
2023-12-10T04:12:43.889Z,95569.44
2023-12-10T04:15:10.224Z,95570.19
2023-12-10T04:17:36.658Z,95579.44
2023-12-10T04:20:03.147Z,95571.81
2023-12-10T04:22:29.855Z,95569.63
2023-12-10T04:24:56.423Z,95563.84
2023-12-10T04:27:22.815Z,95558.47
2023-12-10T04:29:49.374Z,95560.78
2023-12-10T04:32:15.680Z,95570.63
2023-12-10T04:34:42.105Z,95562.53
2023-12-10T04:37:08.617Z,95571.13
2023-12-10T04:39:34.948Z,95562.69
2023-12-10T04:42:01.313Z,95559.69
2023-12-10T04:44:27.748Z,95550.41
2023-12-10T04:46:54.060Z,95562.03
2023-12-10T04:49:20.611Z,95561.47
2023-12-10T04:51:47.227Z,95554.56
2023-12-10T04:54:13.591Z,95555.38
2023-12-10T04:56:39.943Z,95561.75
2023-12-10T04:59:06.300Z,95554.56
2023-12-10T05:01:32.656Z,95562.09
2023-12-10T05:03:59.078Z,95567.69
2023-12-10T05:06:25.697Z,95568.66
2023-12-10T05:08:52.030Z,95566.44
2023-12-10T05:11:18.343Z,95574.63
2023-12-10T05:13:44.879Z,95577.19
2023-12-10T05:16:11.186Z,95590.31
2023-12-10T05:18:37.714Z,95592.41
2023-12-10T05:21:04.122Z,95602.22
2023-12-10T05:23:30.418Z,95607.28
2023-12-10T05:25:56.745Z,95603.28
2023-12-10T05:28:23.096Z,95607.22
2023-12-10T05:30:49.468Z,95614.84
2023-12-10T05:33:15.961Z,95609.75
2023-12-10T05:35:42.465Z,95620.94
2023-12-10T05:38:08.776Z,95612.38
2023-12-10T05:40:35.085Z,95621.91
2023-12-10T05:43:01.493Z,95622.22
2023-12-10T05:45:27.831Z,95626.69
2023-12-10T05:47:54.301Z,95623.78
2023-12-10T05:50:21.181Z,95624.38
2023-12-10T05:52:47.484Z,95628.38
2023-12-10T05:55:13.791Z,95631.19
2023-12-10T05:57:40.208Z,95632.81
2023-12-10T06:00:06.544Z,95640.47
2023-12-10T06:02:32.872Z,95635.66
2023-12-10T06:04:59.224Z,95633.34
2023-12-10T06:07:25.560Z,95630.41
2023-12-10T06:09:51.967Z,95632.88
2023-12-10T06:12:18.421Z,95641.75
2023-12-10T06:14:44.763Z,95646.13
2023-12-10T06:17:11.164Z,95647.13
2023-12-10T06:19:37.770Z,95654.59
2023-12-10T06:22:04.227Z,95656.19
2023-12-10T06:24:30.664Z,95648.91
2023-12-10T06:26:57.045Z,95652.47
2023-12-10T06:29:23.358Z,95667.41
2023-12-10T06:31:49.774Z,95663.25
2023-12-10T06:34:16.288Z,95672.31
2023-12-10T06:36:42.748Z,95679.81
2023-12-10T06:39:09.102Z,95691.13
2023-12-10T06:41:35.729Z,95693.72
2023-12-10T06:44:02.092Z,95693.91
2023-12-10T06:46:28.434Z,95701.16
2023-12-10T06:48:54.865Z,95696.94
2023-12-10T06:51:21.282Z,95703.03
2023-12-10T06:53:47.615Z,95694.22
2023-12-10T06:56:14.115Z,95699.06
2023-12-10T06:58:40.433Z,95703.22
2023-12-10T07:01:06.865Z,95694.06
2023-12-10T07:03:33.681Z,95705.72
2023-12-10T07:06:00.376Z,95702.66
2023-12-10T07:08:26.932Z,95698.75
2023-12-10T07:10:53.362Z,95696.28
2023-12-10T07:13:19.674Z,95708.47
2023-12-10T07:15:46.021Z,95707.66
2023-12-10T07:18:12.486Z,95707.00
2023-12-10T07:20:38.832Z,95702.28
2023-12-10T07:23:05.141Z,95702.00
2023-12-10T07:25:33.181Z,95699.53
2023-12-10T07:27:59.586Z,95718.69
2023-12-10T07:30:25.969Z,95716.44
2023-12-10T07:32:52.384Z,95711.75
2023-12-10T07:35:18.699Z,95715.66
2023-12-10T07:37:45.070Z,95726.59
2023-12-10T07:40:11.437Z,95722.03
2023-12-10T07:42:37.796Z,95716.47
2023-12-10T07:45:04.143Z,95706.97
2023-12-10T07:47:30.517Z,95722.41
2023-12-10T07:49:56.900Z,95722.41
2023-12-10T07:52:23.426Z,95716.91
2023-12-10T07:54:49.783Z,95719.06
2023-12-10T07:57:16.143Z,95716.44
2023-12-10T07:59:42.488Z,95716.13
2023-12-10T08:02:08.826Z,95715.81
2023-12-10T08:04:35.156Z,95721.81
2023-12-10T08:07:01.502Z,95719.97
2023-12-10T08:09:27.831Z,95723.06
2023-12-10T08:11:54.148Z,95725.63
2023-12-10T08:14:20.480Z,95725.28
2023-12-10T08:16:46.926Z,95723.06
2023-12-10T08:19:13.351Z,95731.09
2023-12-10T08:21:39.791Z,95730.88
2023-12-10T08:24:06.155Z,95727.78
2023-12-10T08:26:32.464Z,95729.63
2023-12-10T08:28:59.263Z,95735.44
2023-12-10T08:31:25.585Z,95742.09
2023-12-10T08:33:52.063Z,95741.56
2023-12-10T08:36:18.517Z,95750.19
2023-12-10T08:38:44.890Z,95742.94
2023-12-10T08:41:11.259Z,95739.13
2023-12-10T08:43:37.608Z,95740.69
2023-12-10T08:46:03.985Z,95755.16
2023-12-10T08:48:30.643Z,95736.59
2023-12-10T08:50:57.039Z,95735.44
2023-12-10T08:53:23.398Z,95739.13
2023-12-10T08:55:49.822Z,95751.31
2023-12-10T08:58:16.171Z,95752.72
2023-12-10T09:00:42.615Z,95768.22
2023-12-10T09:03:08.997Z,95768.97
2023-12-10T09:05:35.416Z,95774.94
2023-12-10T09:08:01.840Z,95776.44
2023-12-10T09:10:28.190Z,95775.78
2023-12-10T09:12:54.682Z,95781.88
2023-12-10T09:15:21.090Z,95783.91
2023-12-10T09:17:47.511Z,95792.41
2023-12-10T09:20:14.000Z,95794.41
2023-12-10T09:22:40.367Z,95787.19
2023-12-10T09:25:06.681Z,95798.88
2023-12-10T09:27:33.066Z,95804.88
2023-12-10T09:29:59.462Z,95804.41
2023-12-10T09:32:25.813Z,95812.16
2023-12-10T09:34:52.278Z,95807.91
2023-12-10T09:37:18.694Z,95810.03
2023-12-10T09:39:45.057Z,95809.78
2023-12-10T09:42:11.435Z,95804.69
2023-12-10T09:44:37.762Z,95811.66
2023-12-10T09:47:04.092Z,95809.50
2023-12-10T09:49:30.477Z,95803.34
2023-12-10T09:51:56.872Z,95798.50
2023-12-10T09:54:23.209Z,95797.09
2023-12-10T09:56:49.559Z,95803.03
2023-12-10T09:59:15.977Z,95808.38
2023-12-10T10:01:42.348Z,95801.59
2023-12-10T10:04:08.836Z,95803.34
2023-12-10T10:06:35.863Z,95790.56
2023-12-10T10:09:02.921Z,95797.50
2023-12-10T10:11:29.245Z,95802.84
2023-12-10T10:13:55.569Z,95791.09
2023-12-10T10:16:22.038Z,95787.59
2023-12-10T10:18:48.494Z,95794.03
2023-12-10T10:21:14.882Z,95780.72
2023-12-10T10:23:41.252Z,95778.06
2023-12-10T10:26:07.586Z,95791.59
2023-12-10T10:28:34.290Z,95787.06
2023-12-10T10:31:00.618Z,95785.75
2023-12-10T10:33:27.087Z,95777.75
2023-12-10T10:35:53.556Z,95772.97
2023-12-10T10:38:19.913Z,95767.38
2023-12-10T10:40:46.466Z,95764.69
2023-12-10T10:43:12.840Z,95754.03
2023-12-10T10:45:39.652Z,95748.97
2023-12-10T10:48:06.123Z,95749.69
2023-12-10T10:50:32.516Z,95752.81
2023-12-10T10:52:58.894Z,95741.59
2023-12-10T10:55:25.206Z,95742.34
2023-12-10T10:57:51.604Z,95745.81
2023-12-10T11:00:18.103Z,95745.28
2023-12-10T11:02:44.564Z,95741.84
2023-12-10T11:05:10.925Z,95744.38
2023-12-10T11:07:37.321Z,95727.81
2023-12-10T11:10:03.724Z,95729.78
2023-12-10T11:12:30.071Z,95723.06
2023-12-10T11:14:56.401Z,95732.00
2023-12-10T11:17:22.726Z,95733.53
2023-12-10T11:19:49.226Z,95736.53
2023-12-10T11:22:15.573Z,95722.94
2023-12-10T11:24:41.913Z,95716.34
2023-12-10T11:27:08.376Z,95710.97
2023-12-10T11:29:34.703Z,95710.25
2023-12-10T11:32:01.049Z,95703.69
2023-12-10T11:34:27.448Z,95704.94
2023-12-10T11:36:53.980Z,95710.78
2023-12-10T11:39:20.352Z,95703.88
2023-12-10T11:41:56.246Z,95690.16
2023-12-10T11:44:29.361Z,95688.28
2023-12-10T11:46:58.121Z,95680.56
2023-12-10T11:49:25.010Z,95680.16
2023-12-10T11:51:51.475Z,95682.03
2023-12-10T11:54:17.888Z,95690.75
2023-12-10T11:56:44.247Z,95684.69
2023-12-10T11:59:12.629Z,95695.34
2023-12-10T12:01:39.571Z,95684.69
2023-12-10T12:04:06.052Z,95674.72
2023-12-10T12:06:32.592Z,95672.53
2023-12-10T12:08:58.935Z,95669.03
2023-12-10T12:11:25.258Z,95667.97
2023-12-10T12:13:51.592Z,95660.13
2023-12-10T12:16:18.188Z,95654.88
2023-12-10T12:18:44.720Z,95646.53
2023-12-10T12:21:11.086Z,95641.09
2023-12-10T12:23:37.395Z,95631.81
2023-12-10T12:26:03.715Z,95633.28
2023-12-10T12:28:30.014Z,95626.03
2023-12-10T12:30:56.369Z,95622.91
2023-12-10T12:33:22.844Z,95615.59
2023-12-10T12:35:49.311Z,95616.78
2023-12-10T12:38:15.627Z,95605.22
2023-12-10T12:40:41.949Z,95604.44
2023-12-10T12:43:08.364Z,95606.03
2023-12-10T12:45:34.776Z,95606.75
2023-12-10T12:48:01.338Z,95599.22
2023-12-10T12:50:27.694Z,95594.97
2023-12-10T12:52:54.371Z,95597.63
2023-12-10T12:55:20.795Z,95588.38
2023-12-10T12:57:47.153Z,95584.72
2023-12-10T13:00:13.601Z,95582.91
2023-12-10T13:02:39.924Z,95583.47
2023-12-10T13:05:06.320Z,95576.72
2023-12-10T13:07:32.805Z,95576.06
2023-12-10T13:10:01.846Z,95569.31
2023-12-10T13:12:29.750Z,95560.66
2023-12-10T13:14:56.086Z,95556.50
2023-12-10T13:17:22.436Z,95546.53
2023-12-10T13:19:48.805Z,95539.19
2023-12-10T13:22:15.218Z,95534.56
2023-12-10T13:24:41.590Z,95531.84
2023-12-10T13:27:07.936Z,95536.53
2023-12-10T13:29:34.414Z,95535.69
2023-12-10T13:32:00.732Z,95537.41
2023-12-10T13:34:27.123Z,95528.47
2023-12-10T13:36:53.515Z,95527.41
2023-12-10T13:39:19.985Z,95535.06
2023-12-10T13:41:46.532Z,95537.00
2023-12-10T13:44:13.756Z,95546.94
2023-12-10T13:46:41.424Z,95530.91
2023-12-10T13:49:07.766Z,95534.25
2023-12-10T13:51:34.196Z,95524.31
2023-12-10T13:54:00.646Z,95531.41
2023-12-10T13:56:26.956Z,95529.09
2023-12-10T13:58:53.272Z,95524.91
2023-12-10T14:01:19.699Z,95531.84
2023-12-10T14:03:46.172Z,95525.22
2023-12-10T14:06:12.866Z,95513.03
2023-12-10T14:08:39.207Z,95511.81
2023-12-10T14:11:05.518Z,95515.25
2023-12-10T14:13:31.856Z,95515.34
2023-12-10T14:15:58.176Z,95508.19
2023-12-10T14:18:24.613Z,95500.16
2023-12-10T14:20:51.080Z,95500.69
2023-12-10T14:23:17.566Z,95492.59
2023-12-10T14:25:45.020Z,95479.75
2023-12-10T14:28:11.779Z,95480.19
2023-12-10T14:30:38.179Z,95473.97
2023-12-10T14:33:04.644Z,95467.16
2023-12-10T14:35:31.185Z,95469.03
2023-12-10T14:37:57.523Z,95490.84
2023-12-10T14:40:23.846Z,95490.69
2023-12-10T14:42:50.228Z,95486.81
2023-12-10T14:45:16.775Z,95491.28
2023-12-10T14:47:43.444Z,95482.03
2023-12-10T14:50:09.865Z,95499.28
2023-12-10T14:52:36.202Z,95494.75
2023-12-10T14:55:02.563Z,95497.16
2023-12-10T14:57:29.143Z,95490.44
2023-12-10T14:59:55.692Z,95506.66
2023-12-10T15:02:22.094Z,95499.75
2023-12-10T15:04:48.427Z,95494.91
2023-12-10T15:07:14.841Z,95509.28
2023-12-10T15:09:41.216Z,95510.97
2023-12-10T15:12:07.564Z,95512.78
2023-12-10T15:14:33.869Z,95509.13
2023-12-10T15:17:00.227Z,95514.50
2023-12-10T15:19:26.608Z,95524.06
2023-12-10T15:21:52.995Z,95539.28
2023-12-10T15:24:19.413Z,95526.72
2023-12-10T15:26:45.752Z,95529.16
2023-12-10T15:29:12.071Z,95519.00
2023-12-10T15:31:38.390Z,95517.94
2023-12-10T15:34:04.826Z,95530.47
2023-12-10T15:36:31.290Z,95529.16
2023-12-10T15:38:57.632Z,95512.38
2023-12-10T15:41:24.036Z,95508.88
2023-12-10T15:43:50.361Z,95511.16
2023-12-10T15:46:16.692Z,95512.00
2023-12-10T15:48:43.258Z,95509.88
2023-12-10T15:51:09.707Z,95510.97
2023-12-10T15:53:36.185Z,95511.22
2023-12-10T15:56:02.523Z,95503.75
2023-12-10T15:58:28.863Z,95501.56
2023-12-10T16:00:55.385Z,95494.22
2023-12-10T16:03:21.845Z,95488.59
2023-12-10T16:05:48.368Z,95505.09
2023-12-10T16:08:14.766Z,95501.91
2023-12-10T16:10:41.106Z,95503.25
2023-12-10T16:13:07.472Z,95499.00
2023-12-10T16:15:34.050Z,95499.25
2023-12-10T16:18:00.493Z,95499.50
2023-12-10T16:20:26.868Z,95500.25
2023-12-10T16:22:53.219Z,95510.91
2023-12-10T16:25:19.905Z,95501.13
2023-12-10T16:27:46.383Z,95494.19
2023-12-10T16:30:12.856Z,95480.09
2023-12-10T16:32:39.228Z,95478.50
2023-12-10T16:35:05.664Z,95468.38
2023-12-10T16:37:32.168Z,95460.91
2023-12-10T16:39:58.606Z,95444.41
2023-12-10T16:42:24.957Z,95438.75
2023-12-10T16:44:51.300Z,95423.00
2023-12-10T16:47:17.771Z,95426.16
2023-12-10T16:49:45.634Z,95427.19
2023-12-10T16:52:13.148Z,95436.75
2023-12-10T16:54:39.569Z,95454.34
2023-12-10T16:57:05.930Z,95454.06
2023-12-10T16:59:32.304Z,95457.25
2023-12-10T17:01:58.621Z,95458.00
2023-12-10T17:04:25.116Z,95452.13
2023-12-10T17:06:51.515Z,95452.69
2023-12-10T17:09:17.854Z,95464.91
2023-12-10T17:11:44.209Z,95448.19
2023-12-10T17:14:10.544Z,95451.38
2023-12-10T17:16:36.856Z,95442.03
2023-12-10T17:19:03.407Z,95442.72
2023-12-10T17:21:29.913Z,95444.50
2023-12-10T17:23:56.244Z,95436.25
2023-12-10T17:26:22.562Z,95415.75
2023-12-10T17:28:48.918Z,95384.91
2023-12-10T17:31:15.258Z,95366.69
2023-12-10T17:33:41.742Z,95386.91
2023-12-10T17:36:08.112Z,95401.28
2023-12-10T17:38:34.427Z,95400.47
2023-12-10T17:41:00.913Z,95399.19
2023-12-10T17:43:27.254Z,95416.44
2023-12-10T17:45:53.605Z,95391.63
2023-12-10T17:48:20.004Z,95396.44
2023-12-10T17:50:46.423Z,95395.38
2023-12-10T17:53:12.863Z,95383.13
2023-12-10T17:55:39.199Z,95380.72
2023-12-10T17:58:05.553Z,95378.56
2023-12-10T18:00:31.940Z,95380.19
2023-12-10T18:02:58.285Z,95381.75
2023-12-10T18:05:24.775Z,95375.97
2023-12-10T18:07:51.116Z,95382.03
2023-12-10T18:10:17.466Z,95381.59
2023-12-10T18:12:43.810Z,95392.22
2023-12-10T18:15:10.161Z,95396.78
2023-12-10T18:17:36.742Z,95395.16
2023-12-10T18:20:03.269Z,95389.03
2023-12-10T18:22:29.657Z,95365.88
2023-12-10T18:24:56.044Z,95368.75
2023-12-10T18:27:22.427Z,95376.97
2023-12-10T18:29:48.786Z,95379.84
2023-12-10T18:32:15.109Z,95380.69
2023-12-10T18:34:41.454Z,95369.56
2023-12-10T18:37:07.860Z,95366.16
2023-12-10T18:39:34.249Z,95373.84
2023-12-10T18:42:00.594Z,95382.81
2023-12-10T18:44:26.920Z,95375.47
2023-12-10T18:46:53.271Z,95374.88
2023-12-10T18:49:19.681Z,95368.00
2023-12-10T18:51:46.104Z,95355.22
2023-12-10T18:54:12.437Z,95341.91
2023-12-10T18:56:38.749Z,95350.69
2023-12-10T18:59:05.147Z,95352.53
2023-12-10T19:01:31.561Z,95366.38
2023-12-10T19:03:57.949Z,95377.84
2023-12-10T19:06:24.317Z,95357.03
2023-12-10T19:08:50.657Z,95351.41
2023-12-10T19:11:17.131Z,95346.69
2023-12-10T19:13:43.475Z,95343.22
2023-12-10T19:16:09.864Z,95326.91
2023-12-10T19:18:36.331Z,95337.50
2023-12-10T19:21:02.741Z,95347.06
2023-12-10T19:23:29.209Z,95325.97
2023-12-10T19:25:55.518Z,95353.94
2023-12-10T19:28:21.894Z,95357.41
2023-12-10T19:30:48.360Z,95354.22
2023-12-10T19:33:14.734Z,95360.03
2023-12-10T19:35:41.137Z,95346.44
2023-12-10T19:38:07.455Z,95350.19
2023-12-10T19:40:33.769Z,95356.84
2023-12-10T19:43:00.093Z,95350.97
2023-12-10T19:45:26.494Z,95358.44
2023-12-10T19:47:52.976Z,95368.53
2023-12-10T19:50:19.357Z,95356.53
2023-12-10T19:52:45.690Z,95364.31
2023-12-10T19:55:12.008Z,95349.13
2023-12-10T19:57:38.348Z,95344.59
2023-12-10T20:00:04.713Z,95338.00
2023-12-10T20:02:31.228Z,95338.22
2023-12-10T20:04:57.710Z,95315.06
2023-12-10T20:07:24.136Z,95334.25
2023-12-10T20:09:50.488Z,95333.69
2023-12-10T20:12:16.819Z,95346.44
2023-12-10T20:14:43.144Z,95341.69
2023-12-10T20:17:09.465Z,95328.81
2023-12-10T20:19:35.967Z,95314.50
2023-12-10T20:22:02.406Z,95333.38
2023-12-10T20:24:34.776Z,95321.19
2023-12-10T20:27:03.166Z,95342.41
2023-12-10T20:29:29.571Z,95336.09
2023-12-10T20:31:55.936Z,95321.69
2023-12-10T20:34:29.776Z,95333.38
2023-12-10T20:36:59.485Z,95310.06
2023-12-10T20:39:25.895Z,95311.84
2023-12-10T20:41:52.244Z,95330.00
2023-12-10T20:44:18.625Z,95339.84
2023-12-10T20:46:45.014Z,95343.84
2023-12-10T20:49:11.452Z,95339.59
2023-12-10T20:51:37.834Z,95335.31
2023-12-10T20:54:04.169Z,95335.06
2023-12-10T20:56:30.497Z,95316.97
2023-12-10T20:58:56.842Z,95323.06
2023-12-10T21:01:23.313Z,95339.06
2023-12-10T21:03:49.742Z,95349.69
2023-12-10T21:06:16.184Z,95350.19
2023-12-10T21:08:42.564Z,95335.31
2023-12-10T21:11:08.914Z,95334.00
2023-12-10T21:13:35.242Z,95314.81
2023-12-10T21:16:01.564Z,95316.41
2023-12-10T21:18:28.106Z,95319.38
2023-12-10T21:20:54.507Z,95335.00
2023-12-10T21:23:20.867Z,95309.50
2023-12-10T21:25:47.167Z,95307.06
2023-12-10T21:28:13.527Z,95326.75
2023-12-10T21:30:39.891Z,95314.25
2023-12-10T21:33:06.290Z,95304.94
2023-12-10T21:35:32.640Z,95305.75
2023-12-10T21:37:58.951Z,95294.34
2023-12-10T21:40:25.280Z,95293.34
2023-12-10T21:42:51.609Z,95287.97
2023-12-10T21:45:17.922Z,95267.47
2023-12-10T21:47:44.310Z,95264.59
2023-12-10T21:50:10.683Z,95243.31
2023-12-10T21:52:37.095Z,95251.88
2023-12-10T21:55:03.515Z,95262.19
2023-12-10T21:57:30.097Z,95260.59
2023-12-10T21:59:56.641Z,95248.59
2023-12-10T22:02:22.935Z,95264.88
2023-12-10T22:04:49.403Z,95262.19
2023-12-10T22:07:16.115Z,95256.03
2023-12-10T22:09:42.677Z,95260.31
2023-12-10T22:12:09.222Z,95263.22
2023-12-10T22:14:35.569Z,95264.34
2023-12-10T22:17:01.992Z,95254.25
2023-12-10T22:19:28.563Z,95264.84
2023-12-10T22:21:55.311Z,95281.88
2023-12-10T22:24:21.920Z,95297.31
2023-12-10T22:26:48.504Z,95306.88
2023-12-10T22:29:15.238Z,95296.50
2023-12-10T22:31:41.839Z,95287.19
2023-12-10T22:34:08.561Z,95273.91
2023-12-10T22:36:35.469Z,95298.22
2023-12-10T22:39:01.999Z,95297.69
2023-12-10T22:41:28.650Z,95295.06
2023-12-10T22:43:55.216Z,95297.16
2023-12-10T22:46:21.610Z,95294.00
2023-12-10T22:48:48.144Z,95302.13
2023-12-10T22:51:14.598Z,95298.19
2023-12-10T22:53:41.004Z,95296.63
2023-12-10T22:56:07.362Z,95296.31
2023-12-10T22:58:33.804Z,95289.97
2023-12-10T23:01:00.268Z,95297.75
2023-12-10T23:03:26.723Z,95288.16
2023-12-10T23:05:53.182Z,95278.69
2023-12-10T23:08:19.553Z,95269.91
2023-12-10T23:10:45.892Z,95269.59
2023-12-10T23:13:12.334Z,95273.66
2023-12-10T23:15:38.686Z,95274.91
2023-12-10T23:18:05.289Z,95254.66
2023-12-10T23:20:31.804Z,95259.84
2023-12-10T23:22:58.149Z,95253.53
2023-12-10T23:25:24.536Z,95252.03
2023-12-10T23:27:50.970Z,95249.97
2023-12-10T23:30:20.406Z,95261.41
2023-12-10T23:32:51.204Z,95248.06
2023-12-10T23:35:17.709Z,95244.13
2023-12-10T23:37:44.032Z,95239.28
2023-12-10T23:40:10.398Z,95248.13
2023-12-10T23:42:36.875Z,95244.66
2023-12-10T23:45:03.192Z,95242.53
2023-12-10T23:47:29.747Z,95258.50
2023-12-10T23:49:56.394Z,95260.88
2023-12-10T23:52:22.729Z,95251.06
2023-12-10T23:54:49.073Z,95254.50
2023-12-10T23:57:15.404Z,95255.84
2023-12-10T23:59:41.816Z,95258.22
